Time;durP1;ratioP1;P1;durP2;ratioP2;P2;SDS_P1;SDS_P2;PMS_P1;PMS_P2;Temp;Humidity;BMP_temperature;BMP_pressure;BME280_temperature;BME280_humidity;BME280_pressure;Samples;Min_cycle;Max_cycle;Signal;HPM_P1;HPM_P2
2022/01/26 00:07:14;;;;;;;108.20;40.33;;;2.40;84.70;;;;;;5066279;28;20052;-72
2022/01/26 00:09:40;;;;;;;110.20;40.23;;;2.40;84.50;;;;;;5063300;28;20048;-72
2022/01/26 00:12:06;;;;;;;104.10;38.57;;;2.40;84.60;;;;;;5047273;28;20045;-72
2022/01/26 00:14:32;;;;;;;108.47;40.58;;;2.40;84.60;;;;;;5046501;28;20155;-72
2022/01/26 00:17:00;;;;;;;106.70;41.47;;;2.40;84.50;;;;;;5043215;28;20120;-72
2022/01/26 00:19:33;;;;;;;114.60;41.33;;;2.40;84.40;;;;;;5031335;28;20520;-72
2022/01/26 00:21:59;;;;;;;104.68;37.70;;;2.40;84.40;;;;;;5042461;28;20794;-72
2022/01/26 00:29:57;;;;;;;102.05;38.95;;;2.40;84.40;;;;;;5064920;28;20041;-72
2022/01/26 00:40:43;;;;;;;107.35;40.92;;;2.40;84.40;;;;;;5052949;28;20464;-72
2022/01/26 00:45:38;;;;;;;109.28;40.65;;;2.40;84.40;;;;;;5050436;28;20048;-72
2022/01/26 00:48:08;;;;;;;106.13;41.20;;;2.40;84.50;;;;;;5037799;28;20033;-72
2022/01/26 00:50:35;;;;;;;102.68;42.00;;;2.40;84.50;;;;;;5025409;28;20075;-72
2022/01/26 00:53:02;;;;;;;92.80;40.22;;;2.40;84.40;;;;;;5050260;28;20071;-72
2022/01/26 00:55:27;;;;;;;96.38;41.58;;;2.40;84.20;;;;;;5064685;28;20036;-72
2022/01/26 00:57:53;;;;;;;99.07;40.73;;;2.40;84.20;;;;;;5037172;28;20476;-72
2022/01/26 01:00:26;;;;;;;89.37;39.10;;;2.50;83.80;;;;;;5045802;28;20091;-72
2022/01/26 01:02:53;;;;;;;94.32;39.88;;;2.50;83.90;;;;;;5036210;28;20387;-73
2022/01/26 01:05:21;;;;;;;99.22;41.65;;;2.50;83.80;;;;;;5060341;28;20083;-73
2022/01/26 01:07:57;;;;;;;95.43;41.92;;;2.50;83.80;;;;;;5038884;28;20045;-72
2022/01/26 01:10:24;;;;;;;;;;;2.50;83.70;;;;;;5037456;28;20037;-73
2022/01/26 01:12:55;;;;;;;95.25;40.97;;;2.50;83.50;;;;;;5041153;28;19975;-72
2022/01/26 01:15:21;;;;;;;84.63;41.10;;;2.50;83.20;;;;;;5037079;28;20057;-72
2022/01/26 01:17:52;;;;;;;86.20;40.45;;;2.50;83.20;;;;;;5064730;28;20052;-72
2022/01/26 01:30:22;;;;;;;77.18;37.50;;;2.50;82.20;;;;;;5057551;28;20037;-72
2022/01/26 01:33:28;;;;;;;84.82;37.30;;;2.50;82.10;;;;;;5031092;28;20059;-72
2022/01/26 01:35:43;;;;;;;75.93;34.60;;;2.50;81.90;;;;;;5036604;28;20049;-73
2022/01/26 01:38:14;;;;;;;72.63;35.65;;;2.40;81.80;;;;;;5057280;28;20119;-72
2022/01/26 01:40:42;;;;;;;65.53;31.92;;;2.40;81.80;;;;;;5038039;28;20041;-72
2022/01/26 01:43:09;;;;;;;69.43;33.03;;;2.50;81.80;;;;;;5051777;28;20051;-72
2022/01/26 01:45:38;;;;;;;75.82;33.75;;;2.50;81.70;;;;;;5041433;28;20094;-72
2022/01/26 01:48:04;;;;;;;71.28;32.72;;;2.50;81.70;;;;;;5053325;28;20044;-72
2022/01/26 01:50:36;;;;;;;71.50;35.08;;;2.40;81.60;;;;;;5050417;28;20064;-73
2022/01/26 01:53:02;;;;;;;79.07;38.28;;;2.40;81.70;;;;;;5041109;28;20072;-73
2022/01/26 01:55:31;;;;;;;72.38;34.28;;;2.40;81.90;;;;;;5030993;28;20464;-72
2022/01/26 01:57:58;;;;;;;70.57;34.03;;;2.40;81.80;;;;;;5040123;28;20037;-72
2022/01/26 02:00:25;;;;;;;71.43;32.25;;;2.40;81.80;;;;;;5031765;28;20155;-73
2022/01/26 02:02:52;;;;;;;70.28;32.97;;;2.40;81.40;;;;;;5055175;28;20048;-72
2022/01/26 02:05:24;;;;;;;71.53;34.08;;;2.40;81.60;;;;;;5038780;28;20133;-72
2022/01/26 02:07:50;;;;;;;64.50;31.07;;;2.40;81.40;;;;;;5020535;28;20099;-72
2022/01/26 02:10:15;;;;;;;65.03;32.77;;;2.40;81.40;;;;;;5035248;28;20515;-72
2022/01/26 02:12:46;;;;;;;69.60;31.93;;;2.40;81.20;;;;;;5030504;28;20041;-72
2022/01/26 02:15:19;;;;;;;61.85;30.83;;;2.40;81.20;;;;;;5033487;28;20044;-72
2022/01/26 02:50:58;;;;;;;82.15;37.30;;;2.30;80.90;;;;;;5058220;28;20051;-72
2022/01/26 02:53:39;;;;;;;77.85;37.03;;;2.30;81.10;;;;;;5049890;28;20048;-73
2022/01/26 02:56:06;;;;;;;;;;;2.30;81.10;;;;;;5057097;28;20664;-72
2022/01/26 02:58:48;;;;;;;76.80;36.85;;;2.30;81.10;;;;;;5034655;28;19916;-72
2022/01/26 03:03:55;;;;;;;81.32;36.95;;;2.30;81.30;;;;;;5054357;28;20125;-72
2022/01/26 03:06:29;;;;;;;78.53;36.72;;;2.20;81.20;;;;;;5050573;28;20093;-72
2022/01/26 03:09:00;;;;;;;75.15;35.92;;;2.30;81.60;;;;;;5055743;28;20428;-72
2022/01/26 03:11:30;;;;;;;78.82;37.10;;;2.30;81.50;;;;;;5040400;28;20036;-73
2022/01/26 03:14:06;;;;;;;79.20;37.78;;;2.30;81.40;;;;;;5041870;28;20063;-72
2022/01/26 03:16:41;;;;;;;74.32;35.83;;;2.30;81.40;;;;;;5037514;28;20781;-72
2022/01/26 03:19:35;;;;;;;78.95;35.65;;;2.30;81.40;;;;;;5026043;28;20036;-72
2022/01/26 03:30:19;;;;;;;78.53;34.78;;;2.30;81.40;;;;;;5060489;28;20407;-72
2022/01/26 03:35:19;;;;;;;74.72;35.00;;;2.30;81.40;;;;;;5058683;28;20110;-73
2022/01/26 03:37:54;;;;;;;75.60;35.63;;;2.30;81.20;;;;;;5049997;28;20055;-72
2022/01/26 03:40:29;;;;;;;79.43;36.40;;;2.20;81.40;;;;;;5034996;28;20123;-72
2022/01/26 03:42:55;;;;;;;71.72;34.05;;;2.20;81.40;;;;;;5065909;28;20053;-72
2022/01/26 03:45:21;;;;;;;80.10;35.15;;;2.20;81.60;;;;;;5025063;28;20102;-72
2022/01/26 03:47:50;;;;;;;78.93;37.63;;;2.30;81.70;;;;;;5037354;28;20032;-72
2022/01/26 03:50:15;;;;;;;76.38;35.17;;;2.30;81.50;;;;;;5049633;28;20036;-72
2022/01/26 03:52:41;;;;;;;75.17;35.17;;;2.30;81.50;;;;;;5050351;28;20142;-73
2022/01/26 03:55:07;;;;;;;72.80;35.63;;;2.30;81.40;;;;;;5051354;28;20029;-72
2022/01/26 03:57:35;;;;;;;78.93;35.15;;;2.30;81.60;;;;;;5025016;28;20123;-73
2022/01/26 04:00:02;;;;;;;77.35;34.05;;;2.30;81.70;;;;;;5043225;28;20055;-72
2022/01/26 04:02:28;;;;;;;82.05;35.00;;;2.30;81.80;;;;;;5041417;28;20093;-72
2022/01/26 04:05:00;;;;;;;77.43;34.23;;;2.30;81.70;;;;;;5055328;28;20041;-72
2022/01/26 04:07:31;;;;;;;75.75;33.25;;;2.30;81.80;;;;;;5040010;28;20051;-72
2022/01/26 04:10:05;;;;;;;77.50;33.23;;;2.30;81.80;;;;;;5048467;28;20032;-72
2022/01/26 04:12:33;;;;;;;74.82;32.97;;;2.30;81.90;;;;;;5055814;28;20056;-72
2022/01/26 04:15:07;;;;;;;78.55;34.50;;;2.30;81.90;;;;;;5020259;28;20052;-72
2022/01/26 04:17:33;;;;;;;75.47;32.80;;;2.20;81.90;;;;;;5044291;28;20044;-72
2022/01/26 04:19:59;;;;;;;79.43;31.47;;;2.20;82.00;;;;;;5034735;28;20096;-72
2022/01/26 04:22:34;;;;;;;76.43;31.13;;;2.20;82.10;;;;;;5046292;28;20083;-72
2022/01/26 04:25:00;;;;;;;74.50;29.00;;;2.20;82.00;;;;;;5060388;28;20041;-72
2022/01/26 04:27:39;;;;;;;73.57;30.98;;;2.20;82.00;;;;;;5046558;28;20044;-72
2022/01/26 04:30:06;;;;;;;74.32;28.77;;;2.20;82.10;;;;;;5038994;28;20052;-72
2022/01/26 04:32:32;;;;;;;76.15;30.52;;;2.20;82.20;;;;;;5044374;28;20041;-72
2022/01/26 04:34:59;;;;;;;76.50;31.23;;;2.20;82.10;;;;;;5036815;28;20037;-72
2022/01/26 04:37:37;;;;;;;79.75;30.95;;;2.20;82.20;;;;;;5025052;28;20041;-72
2022/01/26 04:40:10;;;;;;;69.15;29.33;;;2.20;82.20;;;;;;5052083;28;20124;-73
2022/01/26 04:42:53;;;;;;;74.70;29.50;;;2.20;82.40;;;;;;5046559;28;20064;-72
2022/01/26 04:45:19;;;;;;;83.07;32.42;;;2.20;82.40;;;;;;5052422;28;20620;-72
2022/01/26 04:47:44;;;;;;;76.47;30.70;;;2.20;82.50;;;;;;5003312;28;20088;-72
2022/01/26 04:50:11;;;;;;;73.63;28.87;;;2.20;82.40;;;;;;5032694;28;20257;-72
2022/01/26 04:52:38;;;;;;;75.93;30.58;;;2.20;82.50;;;;;;5038753;28;20036;-72
2022/01/26 04:55:04;;;;;;;78.00;30.80;;;2.20;82.40;;;;;;5042469;28;20385;-73
2022/01/26 04:57:30;;;;;;;72.97;29.92;;;2.20;82.30;;;;;;5035325;28;20047;-73
2022/01/26 04:59:56;;;;;;;78.50;31.27;;;2.10;82.40;;;;;;5015683;28;20056;-72
2022/01/26 05:02:22;;;;;;;77.73;31.77;;;2.20;82.30;;;;;;5043766;28;20036;-72
2022/01/26 05:04:47;;;;;;;81.37;32.53;;;2.20;82.50;;;;;;5035479;28;20220;-72
2022/01/26 05:07:13;;;;;;;85.37;30.83;;;2.20;82.50;;;;;;5026546;28;20040;-72
2022/01/26 05:09:40;;;;;;;82.57;32.20;;;2.20;82.40;;;;;;5043048;28;20178;-72
2022/01/26 05:12:06;;;;;;;80.43;31.98;;;2.20;82.50;;;;;;5042618;28;20044;-72
2022/01/26 05:14:32;;;;;;;84.82;32.25;;;2.20;82.40;;;;;;5014126;28;20057;-73
2022/01/26 05:16:58;;;;;;;76.97;32.20;;;2.20;82.50;;;;;;5036194;28;20052;-73
2022/01/26 05:19:23;;;;;;;83.50;31.97;;;2.20;82.40;;;;;;5054086;28;20049;-73
2022/01/26 05:21:49;;;;;;;79.83;33.30;;;2.20;82.30;;;;;;5034990;28;20398;-73
2022/01/26 05:24:15;;;;;;;76.50;31.60;;;2.20;82.20;;;;;;5040997;28;20041;-73
2022/01/26 05:26:41;;;;;;;74.50;31.87;;;2.20;82.20;;;;;;5047048;28;20523;-73
2022/01/26 05:29:07;;;;;;;82.35;32.63;;;2.20;82.20;;;;;;5036827;28;20044;-73
2022/01/26 05:31:33;;;;;;;79.53;33.77;;;2.20;82.00;;;;;;5006813;28;20128;-73
2022/01/26 05:33:59;;;;;;;81.90;33.92;;;2.20;82.00;;;;;;5045320;28;20556;-72
2022/01/26 05:36:25;;;;;;;81.15;33.45;;;2.20;82.10;;;;;;5045832;28;20037;-72
2022/01/26 05:38:50;;;;;;;83.53;33.07;;;2.20;82.20;;;;;;5060021;28;20101;-72
2022/01/26 05:41:16;;;;;;;83.07;34.53;;;2.30;82.20;;;;;;5057039;28;20047;-72
2022/01/26 05:43:43;;;;;;;76.93;34.05;;;2.30;82.20;;;;;;5063735;28;20036;-72
2022/01/26 05:46:18;;;;;;;78.73;33.07;;;2.30;82.00;;;;;;5022352;28;20577;-72
2022/01/26 05:48:45;;;;;;;75.35;34.00;;;2.30;82.10;;;;;;5031455;28;20032;-72
2022/01/26 05:51:15;;;;;;;83.00;34.50;;;2.30;81.90;;;;;;5021698;28;20043;-72
2022/01/26 05:53:41;;;;;;;82.30;34.65;;;2.30;82.00;;;;;;5033054;28;20048;-72
2022/01/26 05:56:07;;;;;;;78.80;34.37;;;2.30;82.00;;;;;;5021849;28;20397;-72
2022/01/26 05:58:33;;;;;;;79.20;33.22;;;2.30;82.00;;;;;;5034677;28;20056;-72
2022/01/26 06:01:03;;;;;;;79.40;35.30;;;2.40;81.80;;;;;;5045285;28;20407;-72
2022/01/26 06:03:29;;;;;;;79.72;36.70;;;2.40;81.70;;;;;;5056938;28;20044;-72
2022/01/26 06:05:56;;;;;;;80.97;34.20;;;2.40;81.80;;;;;;5059848;28;20512;-72
2022/01/26 06:08:23;;;;;;;81.80;35.15;;;2.40;81.80;;;;;;5040600;28;20048;-72
2022/01/26 06:10:50;;;;;;;80.60;36.47;;;2.40;81.90;;;;;;5040808;28;20049;-72
2022/01/26 06:13:16;;;;;;;84.00;36.53;;;2.40;82.00;;;;;;5058551;28;20048;-72
2022/01/26 06:15:43;;;;;;;85.82;36.63;;;2.40;82.00;;;;;;5043054;28;20556;-72
2022/01/26 06:18:12;;;;;;;86.03;37.08;;;2.40;82.10;;;;;;5042771;28;20097;-72
2022/01/26 06:20:38;;;;;;;90.68;38.97;;;2.40;82.30;;;;;;5066159;28;20049;-72
2022/01/26 06:23:04;;;;;;;88.88;38.80;;;2.40;82.50;;;;;;5051806;28;20052;-72
2022/01/26 06:25:31;;;;;;;86.90;37.92;;;2.40;82.60;;;;;;5057927;28;20040;-72
2022/01/26 06:27:59;;;;;;;91.90;41.42;;;2.50;82.80;;;;;;5041083;28;20044;-72
2022/01/26 06:30:26;;;;;;;92.55;40.28;;;2.50;82.80;;;;;;5048042;28;20052;-72
2022/01/26 06:32:52;;;;;;;96.20;41.90;;;2.50;82.90;;;;;;5037694;28;20113;-72
2022/01/26 06:35:18;;;;;;;92.25;40.50;;;2.50;82.90;;;;;;5053725;28;20091;-72
2022/01/26 06:37:44;;;;;;;94.45;40.90;;;2.50;83.00;;;;;;5067385;28;20067;-72
2022/01/26 06:40:10;;;;;;;94.00;39.63;;;2.50;82.80;;;;;;5031285;28;20035;-72
2022/01/26 06:42:49;;;;;;;97.60;39.67;;;2.50;82.70;;;;;;5041480;28;20048;-72
2022/01/26 06:45:21;;;;;;;97.95;41.30;;;2.60;82.70;;;;;;5065377;28;20088;-72
2022/01/26 06:50:21;;;;;;;89.38;39.58;;;2.60;82.50;;;;;;5072654;28;20392;-72
2022/01/26 06:52:47;;;;;;;96.27;41.43;;;2.60;82.40;;;;;;5037172;28;20044;-72
2022/01/26 06:55:14;;;;;;;95.60;39.85;;;2.70;82.50;;;;;;5037898;28;20079;-72
2022/01/26 06:57:41;;;;;;;94.22;40.22;;;2.70;82.70;;;;;;5036791;28;20152;-72
2022/01/26 07:00:08;;;;;;;99.60;42.15;;;2.70;82.70;;;;;;5055167;28;20044;-72
2022/01/26 07:02:36;;;;;;;95.70;41.40;;;2.70;82.80;;;;;;5044609;28;20051;-72
2022/01/26 07:05:01;;;;;;;105.10;41.35;;;2.60;82.90;;;;;;5053657;28;20074;-72
2022/01/26 07:07:28;;;;;;;97.03;40.92;;;2.70;82.90;;;;;;5050339;28;20068;-72
2022/01/26 07:09:54;;;;;;;93.30;41.07;;;2.70;83.10;;;;;;5036271;28;20048;-72
2022/01/26 07:12:20;;;;;;;99.93;41.37;;;2.60;83.30;;;;;;5029263;28;20045;-72
2022/01/26 07:23:10;;;;;;;81.97;36.60;;;2.70;83.10;;;;;;5079582;28;20044;-72
2022/01/26 07:25:36;;;;;;;87.97;37.73;;;2.60;82.90;;;;;;5055551;28;20044;-72
2022/01/26 07:28:04;;;;;;;79.72;36.70;;;2.70;83.00;;;;;;5058024;28;20041;-73
2022/01/26 07:30:31;;;;;;;77.57;34.92;;;2.70;82.80;;;;;;5044316;28;20044;-73
2022/01/26 07:32:57;;;;;;;78.70;35.60;;;2.70;82.50;;;;;;5047944;28;20043;-73
2022/01/26 07:35:22;;;;;;;79.40;36.30;;;2.70;82.40;;;;;;5049863;28;20040;-72
2022/01/26 07:37:50;;;;;;;71.00;33.13;;;2.70;82.40;;;;;;5057323;28;20488;-74
2022/01/26 07:40:16;;;;;;;71.68;36.13;;;2.70;82.10;;;;;;5064621;28;20048;-73
2022/01/26 07:42:41;;;;;;;73.07;35.13;;;2.70;81.90;;;;;;5047740;28;20054;-73
2022/01/26 07:45:10;;;;;;;72.40;34.77;;;2.80;81.70;;;;;;5045487;28;20047;-72
2022/01/26 07:47:37;;;;;;;76.00;35.38;;;2.80;81.80;;;;;;5031694;28;20041;-72
2022/01/26 07:50:07;;;;;;;80.97;36.42;;;2.80;81.70;;;;;;5063478;28;20040;-72
2022/01/26 07:52:37;;;;;;;72.30;32.70;;;2.80;81.20;;;;;;5072717;28;20123;-73
2022/01/26 07:55:04;;;;;;;72.90;33.72;;;2.80;81.30;;;;;;5022967;28;20044;-72
2022/01/26 07:57:30;;;;;;;69.25;34.15;;;2.80;80.60;;;;;;5066688;28;20047;-72
2022/01/26 07:59:56;;;;;;;68.27;31.90;;;2.90;80.10;;;;;;5058877;28;20123;-72
2022/01/26 08:02:22;;;;;;;69.63;33.23;;;2.90;80.30;;;;;;5037363;28;20563;-72
2022/01/26 08:04:48;;;;;;;74.07;33.33;;;2.90;80.00;;;;;;5049414;28;20092;-72
2022/01/26 08:07:13;;;;;;;74.63;35.50;;;2.90;80.10;;;;;;5038638;28;20479;-72
2022/01/26 08:09:44;;;;;;;77.13;33.77;;;2.90;79.50;;;;;;5060960;28;20290;-72
2022/01/26 08:12:17;;;;;;;68.68;32.47;;;2.90;79.70;;;;;;5063717;28;20816;-72
2022/01/26 08:14:44;;;;;;;72.40;33.13;;;2.90;79.70;;;;;;5057377;28;20067;-72
2022/01/26 08:17:11;;;;;;;74.28;33.78;;;2.90;79.50;;;;;;5054537;28;20334;-73
2022/01/26 08:19:39;;;;;;;78.88;35.50;;;2.90;79.80;;;;;;5082750;28;20075;-73
2022/01/26 08:22:05;;;;;;;82.40;35.33;;;2.90;79.90;;;;;;5068111;28;20539;-72
2022/01/26 08:24:32;;;;;;;77.03;36.60;;;2.90;79.80;;;;;;5052205;28;20412;-72
2022/01/26 08:27:04;;;;;;;76.50;36.80;;;2.90;79.80;;;;;;5059231;28;20101;-72
2022/01/26 08:29:38;;;;;;;78.40;35.65;;;2.90;80.00;;;;;;5052008;28;20035;-72
2022/01/26 08:32:04;;;;;;;73.05;34.00;;;2.90;79.90;;;;;;5032378;28;20462;-72
2022/01/26 08:34:29;;;;;;;75.50;35.03;;;3.00;80.10;;;;;;5056297;28;20044;-72
2022/01/26 08:36:55;;;;;;;78.07;34.90;;;2.90;80.00;;;;;;5042729;28;20294;-73
2022/01/26 08:39:21;;;;;;;73.75;34.58;;;3.00;80.10;;;;;;5065033;28;20048;-73
2022/01/26 08:41:47;;;;;;;81.13;35.33;;;3.00;80.00;;;;;;5046449;28;20039;-72
2022/01/26 08:44:13;;;;;;;86.88;38.05;;;3.00;80.10;;;;;;5028796;28;20409;-72
2022/01/26 08:46:39;;;;;;;84.23;37.67;;;3.00;80.10;;;;;;5042748;28;20107;-72
2022/01/26 08:49:05;;;;;;;90.10;38.50;;;3.00;80.40;;;;;;5045146;28;20044;-72
2022/01/26 08:51:32;;;;;;;88.68;39.47;;;3.00;80.50;;;;;;5064548;28;20042;-72
2022/01/26 08:53:57;;;;;;;82.38;37.88;;;3.10;80.60;;;;;;5057038;28;20128;-72
2022/01/26 08:56:23;;;;;;;84.40;37.00;;;3.10;80.70;;;;;;5050066;28;20118;-72
2022/01/26 08:58:49;;;;;;;88.20;38.70;;;3.10;80.80;;;;;;5062593;28;20048;-72
2022/01/26 09:01:14;;;;;;;90.87;39.80;;;3.10;80.90;;;;;;5048602;28;20537;-72
2022/01/26 09:03:41;;;;;;;84.57;39.43;;;3.10;80.90;;;;;;5056524;28;20041;-72
2022/01/26 09:06:07;;;;;;;87.15;37.83;;;3.10;81.00;;;;;;5041756;28;20028;-72
2022/01/26 09:08:34;;;;;;;82.97;36.80;;;3.20;81.00;;;;;;5065908;28;20093;-72
2022/01/26 09:11:02;;;;;;;85.10;35.75;;;3.20;81.00;;;;;;5043214;28;20248;-72
2022/01/26 09:13:33;;;;;;;88.25;37.15;;;3.20;80.90;;;;;;5045986;28;20127;-72
2022/01/26 09:16:02;;;;;;;82.65;35.60;;;3.30;80.60;;;;;;5051606;28;20500;-72
2022/01/26 09:18:45;;;;;;;79.05;35.03;;;3.30;80.60;;;;;;5062897;28;20075;-72
2022/01/26 09:21:11;;;;;;;83.50;36.67;;;3.30;80.70;;;;;;5041713;28;20036;-72
2022/01/26 09:23:36;;;;;;;85.03;36.70;;;3.30;80.50;;;;;;5029446;28;20554;-72
2022/01/26 09:26:03;;;;;;;89.00;37.13;;;3.30;80.50;;;;;;5054247;28;20040;-72
2022/01/26 09:28:29;;;;;;;84.40;37.17;;;3.30;80.60;;;;;;5027730;28;20075;-72
2022/01/26 09:30:55;;;;;;;86.13;37.27;;;3.30;80.70;;;;;;5067667;28;20072;-72
2022/01/26 09:33:20;;;;;;;83.43;35.83;;;3.30;80.60;;;;;;5061112;28;20523;-72
2022/01/26 09:35:47;;;;;;;90.27;36.60;;;3.30;80.60;;;;;;5061271;28;20096;-72
2022/01/26 09:38:13;;;;;;;87.28;36.38;;;3.40;80.70;;;;;;5047154;28;20043;-72
2022/01/26 09:40:39;;;;;;;78.00;35.10;;;3.40;80.70;;;;;;5048194;28;20043;-72
2022/01/26 09:43:05;;;;;;;80.68;35.35;;;3.40;80.80;;;;;;5048559;28;20040;-72
2022/01/26 09:45:34;;;;;;;78.78;34.10;;;3.50;80.80;;;;;;5043056;28;20552;-72
2022/01/26 09:48:02;;;;;;;74.10;33.20;;;3.50;80.40;;;;;;5036767;28;20044;-73
2022/01/26 09:50:27;;;;;;;68.93;33.22;;;3.50;80.40;;;;;;5079809;28;20046;-73
2022/01/26 09:52:55;;;;;;;70.27;31.00;;;3.50;80.10;;;;;;5053802;28;20290;-73
2022/01/26 09:55:21;;;;;;;74.32;31.23;;;3.50;80.00;;;;;;5034800;28;20048;-73
2022/01/26 09:57:46;;;;;;;66.83;29.93;;;3.50;79.80;;;;;;5068789;28;20502;-73
2022/01/26 10:00:14;;;;;;;72.00;31.70;;;3.50;79.90;;;;;;5037168;28;20040;-73
2022/01/26 10:02:43;;;;;;;71.68;30.85;;;3.60;79.80;;;;;;5048191;28;20048;-73
2022/01/26 10:05:12;;;;;;;65.82;31.10;;;3.60;79.70;;;;;;5036667;28;20405;-73
2022/01/26 10:17:03;;;;;;;61.22;29.08;;;3.60;79.30;;;;;;4998819;28;20345;-72
2022/01/26 10:18:55;;;;;;;65.33;30.50;;;3.60;79.30;;;;;;5059471;28;20270;-72
2022/01/26 10:21:21;;;;;;;72.22;31.55;;;3.60;79.20;;;;;;5051350;28;20282;-72
2022/01/26 10:23:47;;;;;;;74.53;32.67;;;3.60;79.30;;;;;;5032598;28;20147;-72
2022/01/26 10:26:15;;;;;;;75.27;34.07;;;3.60;79.70;;;;;;5045787;28;20146;-72
2022/01/26 10:28:48;;;;;;;77.07;34.25;;;3.60;79.50;;;;;;5040435;28;20040;-72
2022/01/26 10:31:24;;;;;;;73.00;32.08;;;3.60;79.70;;;;;;5062405;28;20062;-72
2022/01/26 10:34:02;;;;;;;74.15;33.20;;;3.60;79.40;;;;;;5046637;28;20044;-72
2022/01/26 10:36:41;;;;;;;70.93;32.38;;;3.60;79.60;;;;;;5051541;28;20048;-72
2022/01/26 10:39:32;;;;;;;69.70;32.70;;;3.70;79.60;;;;;;5058679;28;20044;-72
2022/01/26 10:42:02;;;;;;;74.47;32.53;;;3.70;79.30;;;;;;5059460;28;20068;-72
2022/01/26 10:44:32;;;;;;;71.80;31.75;;;3.70;79.40;;;;;;5030075;28;20040;-72
2022/01/26 10:47:03;;;;;;;70.70;29.77;;;3.70;79.40;;;;;;5031137;28;20090;-72
2022/01/26 10:49:56;;;;;;;66.75;30.63;;;3.70;79.10;;;;;;5045638;28;20492;-72
2022/01/26 10:54:53;;;;;;;63.72;30.38;;;3.70;79.40;;;;;;5064776;28;20067;-72
2022/01/26 10:57:19;;;;;;;65.33;31.23;;;3.70;79.50;;;;;;5036139;28;20040;-72
2022/01/26 10:59:47;;;;;;;69.35;31.48;;;3.70;79.20;;;;;;5052766;28;20035;-72
2022/01/26 11:02:14;;;;;;;67.80;29.13;;;3.70;79.70;;;;;;5068258;28;20045;-72
2022/01/26 11:04:42;;;;;;;61.85;30.00;;;3.70;79.60;;;;;;5060962;28;20457;-72
2022/01/26 11:07:14;;;;;;;66.63;30.38;;;3.70;79.60;;;;;;5049197;28;20032;-72
2022/01/26 11:09:44;;;;;;;69.03;30.10;;;3.70;79.70;;;;;;5058480;28;20036;-72
2022/01/26 11:12:13;;;;;;;66.82;30.30;;;3.70;79.60;;;;;;5060235;28;20029;-72
2022/01/26 11:14:47;;;;;;;67.88;30.35;;;3.70;79.80;;;;;;5047238;28;20100;-72
2022/01/26 11:17:35;;;;;;;69.70;30.70;;;3.70;79.80;;;;;;5069629;28;20484;-73
2022/01/26 11:20:29;;;;;;;65.70;29.23;;;3.70;80.00;;;;;;5063049;28;20044;-73
2022/01/26 11:22:57;;;;;;;62.15;27.95;;;3.70;80.00;;;;;;5034677;28;20080;-72
2022/01/26 11:25:25;;;;;;;73.47;31.42;;;3.70;80.00;;;;;;5047907;28;20039;-73
2022/01/26 11:27:52;;;;;;;72.72;30.67;;;3.80;80.10;;;;;;5051394;28;20152;-73
2022/01/26 11:30:32;;;;;;;73.25;32.13;;;3.80;80.00;;;;;;5045964;28;20135;-73
2022/01/26 11:33:04;;;;;;;72.63;30.80;;;3.80;80.10;;;;;;5046922;28;20040;-73
2022/01/26 11:35:32;;;;;;;68.07;30.60;;;3.90;80.00;;;;;;5050153;28;20037;-73
2022/01/26 11:38:16;;;;;;;68.78;30.23;;;3.90;80.10;;;;;;5047206;28;20036;-72
2022/01/26 11:46:26;;;;;;;67.88;33.78;;;4.00;79.80;;;;;;5058086;28;20121;-72
2022/01/26 11:49:05;;;;;;;61.00;30.23;;;4.10;79.60;;;;;;5070094;28;20082;-72
2022/01/26 11:51:52;;;;;;;69.82;30.38;;;4.10;79.80;;;;;;5069415;28;20036;-72
2022/01/26 11:54:24;;;;;;;61.72;29.58;;;4.10;79.50;;;;;;5048281;28;20072;-72
2022/01/26 11:57:03;;;;;;;64.45;30.42;;;4.20;79.50;;;;;;5061487;28;20095;-72
2022/01/26 11:59:32;;;;;;;64.75;30.33;;;4.20;79.50;;;;;;5068294;28;20039;-72
2022/01/26 12:02:00;;;;;;;70.75;31.33;;;4.30;79.20;;;;;;5029629;28;20040;-72
2022/01/26 12:04:26;;;;;;;70.78;31.20;;;4.30;79.10;;;;;;5054186;28;20032;-72
2022/01/26 12:06:59;;;;;;;67.22;29.30;;;4.30;79.00;;;;;;5034074;28;20496;-72
2022/01/26 12:09:25;;;;;;;66.53;30.40;;;4.40;79.10;;;;;;5033740;28;20033;-72
2022/01/26 12:11:52;;;;;;;63.17;30.57;;;4.40;78.80;;;;;;5067447;28;20693;-72
2022/01/26 12:14:21;;;;;;;71.65;32.10;;;4.50;78.90;;;;;;5043660;28;20424;-72
2022/01/26 12:16:49;;;;;;;63.88;30.77;;;4.60;78.70;;;;;;5036272;28;20048;-72
2022/01/26 12:38:21;;;;;;;66.25;29.05;;;4.50;78.60;;;;;;5060685;28;20041;-72
2022/01/26 12:43:45;;;;;;;66.72;30.08;;;4.50;79.10;;;;;;5060559;28;20407;-72
2022/01/26 12:46:23;;;;;;;69.07;30.27;;;4.60;79.20;;;;;;5062690;28;20404;-72
2022/01/26 12:48:52;;;;;;;63.55;28.20;;;4.60;79.30;;;;;;5043251;28;20126;-72
2022/01/26 12:51:19;;;;;;;64.97;29.70;;;4.70;79.00;;;;;;5045268;28;20032;-72
2022/01/26 12:53:51;;;;;;;65.13;29.08;;;4.70;78.70;;;;;;5037599;28;20130;-72
2022/01/26 12:56:17;;;;;;;63.60;28.00;;;4.70;79.00;;;;;;5048963;28;20044;-72
2022/01/26 12:58:43;;;;;;;62.33;27.07;;;4.80;78.80;;;;;;5034474;28;20041;-72
2022/01/26 13:01:18;;;;;;;59.80;27.10;;;4.80;78.70;;;;;;5037154;28;20109;-72
2022/01/26 13:03:47;;;;;;;63.50;27.38;;;4.80;78.70;;;;;;5042614;28;20392;-72
2022/01/26 13:06:14;;;;;;;56.90;26.08;;;4.80;78.60;;;;;;5055302;28;20043;-72
2022/01/26 13:08:51;;;;;;;63.92;26.48;;;4.80;78.70;;;;;;5053289;28;20047;-72
2022/01/26 13:11:32;;;;;;;62.60;27.40;;;4.80;78.60;;;;;;5040114;28;20039;-72
2022/01/26 13:14:19;;;;;;;54.88;25.63;;;4.80;78.70;;;;;;5045508;28;20052;-72
2022/01/26 13:17:37;;;;;;;51.22;23.67;;;4.90;78.50;;;;;;5068895;28;20052;-72
2022/01/26 13:34:04;;;;;;;62.97;28.40;;;4.90;78.30;;;;;;5068801;28;20045;-72
2022/01/26 13:36:45;;;;;;;56.30;25.20;;;4.90;78.60;;;;;;5056093;28;20106;-72
2022/01/26 13:55:29;;;;;;;60.43;27.63;;;4.90;79.10;;;;;;5054101;28;20052;-72
2022/01/26 14:00:36;;;;;;;63.35;27.67;;;4.80;79.20;;;;;;5058608;28;20052;-72
2022/01/26 14:03:05;;;;;;;54.45;26.52;;;4.80;79.60;;;;;;5038379;28;20045;-72
2022/01/26 14:05:30;;;;;;;58.25;26.27;;;4.90;79.80;;;;;;5037397;28;20044;-72
2022/01/26 14:07:57;;;;;;;65.40;27.70;;;4.80;79.90;;;;;;5035893;28;20037;-72
2022/01/26 14:10:23;;;;;;;51.70;25.13;;;4.80;79.80;;;;;;5037903;28;20488;-72
2022/01/26 14:12:50;;;;;;;57.97;26.67;;;4.80;80.00;;;;;;5047323;28;20095;-72
2022/01/26 14:15:23;;;;;;;59.40;26.13;;;4.80;80.30;;;;;;5063932;28;20485;-72
2022/01/26 14:25:36;;;;;;;64.32;28.60;;;4.80;80.40;;;;;;5038479;28;20036;-72
2022/01/26 14:28:07;;;;;;;52.37;26.50;;;4.80;80.30;;;;;;5038234;28;20097;-72
2022/01/26 14:54:48;;;;;;;53.35;26.05;;;5.00;79.90;;;;;;5056490;28;20055;-73
2022/01/26 15:35:25;;;;;;;57.28;24.77;;;4.80;81.90;;;;;;5060390;28;20062;-72
2022/01/26 16:05:22;;;;;;;54.45;22.65;;;4.90;82.90;;;;;;5038321;28;20431;-72
2022/01/26 16:08:00;;;;;;;;;;;4.90;83.10;;;;;;5061475;28;20105;-72
2022/01/26 16:16:31;;;;;;;52.60;22.47;;;4.90;83.10;;;;;;5035814;28;20734;-72
2022/01/26 16:21:23;;;;;;;50.35;22.55;;;4.90;83.20;;;;;;5057625;28;20047;-72
2022/01/26 18:17:49;;;;;;;41.53;18.65;;;5.20;83.40;;;;;;5055628;28;20262;-72
2022/01/26 18:49:31;;;;;;;39.40;18.63;;;5.40;83.00;;;;;;5056502;28;20461;-72
2022/01/26 18:51:59;;;;;;;45.53;20.20;;;5.40;82.90;;;;;;5037810;28;20128;-72
2022/01/26 18:54:35;;;;;;;44.92;23.80;;;5.40;83.00;;;;;;5060461;28;20344;-72
2022/01/26 18:57:03;;;;;;;48.38;21.70;;;5.40;83.00;;;;;;5057611;28;20090;-72
2022/01/26 18:59:29;;;;;;;42.70;21.45;;;5.40;83.10;;;;;;5053585;28;20408;-72
2022/01/26 19:01:56;;;;;;;40.40;20.30;;;5.40;83.00;;;;;;5068441;28;20403;-72
2022/01/26 19:04:28;;;;;;;49.40;21.83;;;5.40;83.10;;;;;;5060482;28;20049;-72
2022/01/26 19:06:55;;;;;;;40.78;20.48;;;5.40;83.20;;;;;;5066379;28;20042;-72
2022/01/26 19:09:25;;;;;;;43.17;20.38;;;5.40;83.20;;;;;;5035785;28;20040;-72
2022/01/26 19:11:51;;;;;;;41.28;19.77;;;5.40;83.00;;;;;;5051534;28;20249;-72
2022/01/26 19:14:21;;;;;;;45.10;19.27;;;5.40;83.20;;;;;;5050619;28;20067;-72
2022/01/26 19:16:58;;;;;;;39.22;18.70;;;5.50;83.10;;;;;;5058344;28;20403;-72
2022/01/26 19:27:08;;;;;;;43.88;19.80;;;5.40;83.50;;;;;;5059369;28;20380;-72
2022/01/26 19:51:06;;;;;;;43.10;16.95;;;5.50;83.70;;;;;;5062448;28;20102;-72
2022/01/26 19:53:32;;;;;;;48.87;19.37;;;5.50;83.90;;;;;;5044861;28;20076;-72
2022/01/26 19:55:58;;;;;;;42.50;17.77;;;5.50;83.80;;;;;;5059538;28;20040;-72
2022/01/26 19:58:25;;;;;;;40.83;18.88;;;5.50;84.00;;;;;;5043194;28;20496;-72
2022/01/26 20:00:52;;;;;;;35.60;17.00;;;5.50;84.20;;;;;;5067702;28;20479;-72
2022/01/26 20:03:20;;;;;;;39.22;18.30;;;5.50;84.20;;;;;;5042755;28;20237;-72
2022/01/26 20:05:48;;;;;;;44.40;19.65;;;5.50;84.30;;;;;;5060583;28;20048;-73
2022/01/26 20:11:00;;;;;;;42.30;17.05;;;5.50;84.40;;;;;;5064144;28;20129;-72